sensor_id;sensor_type;location;lat;lon;timestamp;P1;durP1;ratioP1;P2;durP2;ratioP2
74074;SDS011;62428;51.412;5.432;2022-10-16T00:01:15;4.75;;;1.83;;
74074;SDS011;62428;51.412;5.432;2022-10-16T00:03:42;4.80;;;1.85;;
74074;SDS011;62428;51.412;5.432;2022-10-16T00:06:09;5.88;;;1.40;;
74074;SDS011;62428;51.412;5.432;2022-10-16T00:08:36;3.53;;;1.80;;
74074;SDS011;62428;51.412;5.432;2022-10-16T00:11:03;3.97;;;1.53;;
74074;SDS011;62428;51.412;5.432;2022-10-16T00:13:31;5.57;;;1.75;;
74074;SDS011;62428;51.412;5.432;2022-10-16T00:15:57;4.28;;;1.77;;
74074;SDS011;62428;51.412;5.432;2022-10-16T00:18:24;8.15;;;1.60;;
74074;SDS011;62428;51.412;5.432;2022-10-16T00:20:49;3.30;;;1.60;;
74074;SDS011;62428;51.412;5.432;2022-10-16T00:23:15;5.57;;;2.05;;
74074;SDS011;62428;51.412;5.432;2022-10-16T00:25:40;6.07;;;1.77;;
74074;SDS011;62428;51.412;5.432;2022-10-16T00:28:06;5.67;;;1.90;;
74074;SDS011;62428;51.412;5.432;2022-10-16T00:30:31;6.50;;;1.63;;
74074;SDS011;62428;51.412;5.432;2022-10-16T00:32:56;6.97;;;1.67;;
74074;SDS011;62428;51.412;5.432;2022-10-16T00:35:22;3.80;;;1.50;;
74074;SDS011;62428;51.412;5.432;2022-10-16T00:37:47;4.17;;;1.50;;
74074;SDS011;62428;51.412;5.432;2022-10-16T00:40:12;3.03;;;1.40;;
74074;SDS011;62428;51.412;5.432;2022-10-16T00:42:38;6.07;;;1.60;;
74074;SDS011;62428;51.412;5.432;2022-10-16T00:45:04;5.38;;;1.60;;
74074;SDS011;62428;51.412;5.432;2022-10-16T00:47:31;2.88;;;1.60;;
74074;SDS011;62428;51.412;5.432;2022-10-16T00:50:21;4.10;;;1.42;;
74074;SDS011;62428;51.412;5.432;2022-10-16T00:52:56;3.63;;;1.63;;
74074;SDS011;62428;51.412;5.432;2022-10-16T00:55:23;3.45;;;1.50;;
74074;SDS011;62428;51.412;5.432;2022-10-16T00:57:50;5.03;;;1.55;;
74074;SDS011;62428;51.412;5.432;2022-10-16T01:00:19;5.20;;;1.38;;
74074;SDS011;62428;51.412;5.432;2022-10-16T01:02:53;4.78;;;1.65;;
74074;SDS011;62428;51.412;5.432;2022-10-16T01:05:23;2.80;;;1.30;;
74074;SDS011;62428;51.412;5.432;2022-10-16T01:10:36;6.03;;;1.40;;
74074;SDS011;62428;51.412;5.432;2022-10-16T01:13:06;4.88;;;1.50;;
74074;SDS011;62428;51.412;5.432;2022-10-16T01:15:36;4.93;;;1.30;;
74074;SDS011;62428;51.412;5.432;2022-10-16T01:18:18;5.63;;;1.38;;
74074;SDS011;62428;51.412;5.432;2022-10-16T01:21:08;4.25;;;1.25;;
74074;SDS011;62428;51.412;5.432;2022-10-16T01:26:30;5.22;;;1.50;;
74074;SDS011;62428;51.412;5.432;2022-10-16T01:32:32;3.55;;;1.20;;
74074;SDS011;62428;51.412;5.432;2022-10-16T01:35:04;3.70;;;1.10;;
74074;SDS011;62428;51.412;5.432;2022-10-16T01:40:03;1.92;;;0.90;;
74074;SDS011;62428;51.412;5.432;2022-10-16T01:42:36;2.45;;;1.33;;
74074;SDS011;62428;51.412;5.432;2022-10-16T01:45:05;2.45;;;1.30;;
74074;SDS011;62428;51.412;5.432;2022-10-16T01:47:33;4.07;;;1.40;;
74074;SDS011;62428;51.412;5.432;2022-10-16T01:50:00;4.57;;;1.45;;
74074;SDS011;62428;51.412;5.432;2022-10-16T01:52:29;2.33;;;0.98;;
74074;SDS011;62428;51.412;5.432;2022-10-16T01:54:59;3.38;;;1.00;;
74074;SDS011;62428;51.412;5.432;2022-10-16T01:57:27;2.83;;;1.23;;
74074;SDS011;62428;51.412;5.432;2022-10-16T01:59:56;3.38;;;1.10;;
74074;SDS011;62428;51.412;5.432;2022-10-16T02:02:26;2.55;;;0.95;;
74074;SDS011;62428;51.412;5.432;2022-10-16T02:04:55;1.83;;;0.90;;
74074;SDS011;62428;51.412;5.432;2022-10-16T02:07:24;6.35;;;1.38;;
74074;SDS011;62428;51.412;5.432;2022-10-16T02:09:50;2.77;;;1.03;;
74074;SDS011;62428;51.412;5.432;2022-10-16T02:14:46;2.30;;;0.77;;
74074;SDS011;62428;51.412;5.432;2022-10-16T02:17:12;4.85;;;0.90;;
74074;SDS011;62428;51.412;5.432;2022-10-16T02:19:39;3.15;;;0.93;;
74074;SDS011;62428;51.412;5.432;2022-10-16T02:22:07;1.83;;;0.85;;
74074;SDS011;62428;51.412;5.432;2022-10-16T02:27:35;3.95;;;1.10;;
74074;SDS011;62428;51.412;5.432;2022-10-16T02:30:07;3.10;;;1.00;;
74074;SDS011;62428;51.412;5.432;2022-10-16T02:32:39;6.22;;;0.82;;
74074;SDS011;62428;51.412;5.432;2022-10-16T02:35:07;4.63;;;1.02;;
74074;SDS011;62428;51.412;5.432;2022-10-16T02:37:34;2.17;;;0.75;;
74074;SDS011;62428;51.412;5.432;2022-10-16T02:40:00;2.90;;;0.90;;
74074;SDS011;62428;51.412;5.432;2022-10-16T02:42:34;3.70;;;1.02;;
74074;SDS011;62428;51.412;5.432;2022-10-16T02:45:02;4.50;;;0.90;;
74074;SDS011;62428;51.412;5.432;2022-10-16T02:47:28;4.45;;;1.02;;
74074;SDS011;62428;51.412;5.432;2022-10-16T02:49:53;3.10;;;0.73;;
74074;SDS011;62428;51.412;5.432;2022-10-16T02:52:19;2.93;;;0.93;;
74074;SDS011;62428;51.412;5.432;2022-10-16T02:54:44;4.30;;;0.90;;
74074;SDS011;62428;51.412;5.432;2022-10-16T02:57:10;2.67;;;0.87;;
74074;SDS011;62428;51.412;5.432;2022-10-16T02:59:35;4.40;;;1.07;;
74074;SDS011;62428;51.412;5.432;2022-10-16T03:02:00;3.87;;;1.00;;
74074;SDS011;62428;51.412;5.432;2022-10-16T03:04:26;2.97;;;0.70;;
74074;SDS011;62428;51.412;5.432;2022-10-16T03:06:51;2.97;;;0.75;;
74074;SDS011;62428;51.412;5.432;2022-10-16T03:09:16;4.60;;;1.13;;
74074;SDS011;62428;51.412;5.432;2022-10-16T03:11:42;2.33;;;0.80;;
74074;SDS011;62428;51.412;5.432;2022-10-16T03:14:07;1.77;;;0.83;;
74074;SDS011;62428;51.412;5.432;2022-10-16T03:16:32;3.03;;;1.13;;
74074;SDS011;62428;51.412;5.432;2022-10-16T03:18:58;2.60;;;0.87;;
74074;SDS011;62428;51.412;5.432;2022-10-16T03:21:23;4.13;;;0.73;;
74074;SDS011;62428;51.412;5.432;2022-10-16T03:23:48;1.90;;;1.10;;
74074;SDS011;62428;51.412;5.432;2022-10-16T03:26:14;3.43;;;1.10;;
74074;SDS011;62428;51.412;5.432;2022-10-16T03:28:39;3.17;;;1.00;;
74074;SDS011;62428;51.412;5.432;2022-10-16T03:31:04;3.17;;;0.83;;
74074;SDS011;62428;51.412;5.432;2022-10-16T03:33:30;2.90;;;0.70;;
74074;SDS011;62428;51.412;5.432;2022-10-16T03:35:55;4.13;;;1.07;;
74074;SDS011;62428;51.412;5.432;2022-10-16T03:38:21;2.47;;;0.80;;
74074;SDS011;62428;51.412;5.432;2022-10-16T03:40:46;4.32;;;0.95;;
74074;SDS011;62428;51.412;5.432;2022-10-16T03:43:12;3.10;;;1.10;;
74074;SDS011;62428;51.412;5.432;2022-10-16T03:45:37;4.47;;;1.00;;
74074;SDS011;62428;51.412;5.432;2022-10-16T03:48:03;2.75;;;0.77;;
74074;SDS011;62428;51.412;5.432;2022-10-16T03:50:28;1.97;;;0.70;;
74074;SDS011;62428;51.412;5.432;2022-10-16T03:52:54;2.20;;;0.68;;
74074;SDS011;62428;51.412;5.432;2022-10-16T03:55:19;3.08;;;1.10;;
74074;SDS011;62428;51.412;5.432;2022-10-16T03:57:45;2.07;;;0.90;;
74074;SDS011;62428;51.412;5.432;2022-10-16T04:00:10;2.17;;;1.00;;
74074;SDS011;62428;51.412;5.432;2022-10-16T04:02:36;3.47;;;0.90;;
74074;SDS011;62428;51.412;5.432;2022-10-16T04:05:01;6.00;;;1.10;;
74074;SDS011;62428;51.412;5.432;2022-10-16T04:07:27;2.60;;;0.80;;
74074;SDS011;62428;51.412;5.432;2022-10-16T04:09:52;3.33;;;0.93;;
74074;SDS011;62428;51.412;5.432;2022-10-16T04:12:18;2.90;;;1.02;;
74074;SDS011;62428;51.412;5.432;2022-10-16T04:14:43;4.43;;;0.80;;
74074;SDS011;62428;51.412;5.432;2022-10-16T04:17:08;5.43;;;0.87;;
74074;SDS011;62428;51.412;5.432;2022-10-16T04:19:34;6.30;;;0.90;;
74074;SDS011;62428;51.412;5.432;2022-10-16T04:21:59;3.97;;;1.03;;
74074;SDS011;62428;51.412;5.432;2022-10-16T04:24:24;2.30;;;0.90;;
74074;SDS011;62428;51.412;5.432;2022-10-16T04:26:50;3.40;;;1.20;;
74074;SDS011;62428;51.412;5.432;2022-10-16T04:29:15;3.35;;;1.20;;
74074;SDS011;62428;51.412;5.432;2022-10-16T04:31:41;5.63;;;1.00;;
74074;SDS011;62428;51.412;5.432;2022-10-16T04:34:06;4.97;;;1.47;;
74074;SDS011;62428;51.412;5.432;2022-10-16T04:36:31;5.13;;;1.07;;
74074;SDS011;62428;51.412;5.432;2022-10-16T04:38:56;5.57;;;1.27;;
74074;SDS011;62428;51.412;5.432;2022-10-16T04:41:22;4.83;;;1.07;;
74074;SDS011;62428;51.412;5.432;2022-10-16T04:43:47;6.00;;;1.17;;
74074;SDS011;62428;51.412;5.432;2022-10-16T04:46:12;5.90;;;1.40;;
74074;SDS011;62428;51.412;5.432;2022-10-16T04:48:38;4.73;;;1.20;;
74074;SDS011;62428;51.412;5.432;2022-10-16T04:51:03;5.45;;;1.33;;
74074;SDS011;62428;51.412;5.432;2022-10-16T04:53:28;3.60;;;1.45;;
74074;SDS011;62428;51.412;5.432;2022-10-16T04:55:54;4.97;;;1.10;;
74074;SDS011;62428;51.412;5.432;2022-10-16T04:58:20;2.53;;;0.98;;
74074;SDS011;62428;51.412;5.432;2022-10-16T05:00:46;7.53;;;1.43;;
74074;SDS011;62428;51.412;5.432;2022-10-16T05:03:12;4.47;;;1.30;;
74074;SDS011;62428;51.412;5.432;2022-10-16T05:05:41;3.72;;;1.23;;
74074;SDS011;62428;51.412;5.432;2022-10-16T05:08:08;4.90;;;1.17;;
74074;SDS011;62428;51.412;5.432;2022-10-16T05:10:33;5.13;;;1.20;;
74074;SDS011;62428;51.412;5.432;2022-10-16T05:12:59;3.87;;;1.10;;
74074;SDS011;62428;51.412;5.432;2022-10-16T05:15:24;4.83;;;1.00;;
74074;SDS011;62428;51.412;5.432;2022-10-16T05:17:51;6.57;;;1.15;;
74074;SDS011;62428;51.412;5.432;2022-10-16T05:20:18;4.47;;;1.03;;
74074;SDS011;62428;51.412;5.432;2022-10-16T05:22:43;2.97;;;1.10;;
74074;SDS011;62428;51.412;5.432;2022-10-16T05:25:08;8.30;;;1.00;;
74074;SDS011;62428;51.412;5.432;2022-10-16T05:27:34;3.47;;;1.07;;
74074;SDS011;62428;51.412;5.432;2022-10-16T05:29:59;8.43;;;1.23;;
74074;SDS011;62428;51.412;5.432;2022-10-16T05:32:24;3.83;;;1.30;;
74074;SDS011;62428;51.412;5.432;2022-10-16T05:34:50;4.53;;;1.10;;
74074;SDS011;62428;51.412;5.432;2022-10-16T05:37:15;8.32;;;1.63;;
74074;SDS011;62428;51.412;5.432;2022-10-16T05:39:41;4.57;;;1.30;;
74074;SDS011;62428;51.412;5.432;2022-10-16T05:42:06;3.37;;;1.20;;
74074;SDS011;62428;51.412;5.432;2022-10-16T05:44:32;3.97;;;1.33;;
74074;SDS011;62428;51.412;5.432;2022-10-16T05:46:57;5.73;;;1.40;;
74074;SDS011;62428;51.412;5.432;2022-10-16T05:49:23;3.00;;;1.35;;
74074;SDS011;62428;51.412;5.432;2022-10-16T05:51:48;4.90;;;1.10;;
74074;SDS011;62428;51.412;5.432;2022-10-16T05:54:13;5.80;;;1.30;;
74074;SDS011;62428;51.412;5.432;2022-10-16T05:56:39;6.73;;;1.20;;
74074;SDS011;62428;51.412;5.432;2022-10-16T05:59:04;7.47;;;1.30;;
74074;SDS011;62428;51.412;5.432;2022-10-16T06:01:30;4.75;;;1.20;;
74074;SDS011;62428;51.412;5.432;2022-10-16T06:03:56;3.67;;;1.27;;
74074;SDS011;62428;51.412;5.432;2022-10-16T06:06:22;8.25;;;1.60;;
74074;SDS011;62428;51.412;5.432;2022-10-16T06:08:51;6.63;;;1.40;;
74074;SDS011;62428;51.412;5.432;2022-10-16T06:11:18;6.88;;;1.65;;
74074;SDS011;62428;51.412;5.432;2022-10-16T06:13:48;3.90;;;1.63;;
74074;SDS011;62428;51.412;5.432;2022-10-16T06:16:18;6.28;;;1.58;;
74074;SDS011;62428;51.412;5.432;2022-10-16T06:18:43;4.60;;;1.50;;
74074;SDS011;62428;51.412;5.432;2022-10-16T06:21:10;3.87;;;1.67;;
74074;SDS011;62428;51.412;5.432;2022-10-16T06:23:41;4.97;;;1.88;;
74074;SDS011;62428;51.412;5.432;2022-10-16T06:26:09;6.77;;;1.47;;
74074;SDS011;62428;51.412;5.432;2022-10-16T06:28:36;3.53;;;1.42;;
74074;SDS011;62428;51.412;5.432;2022-10-16T06:31:02;3.85;;;1.52;;
74074;SDS011;62428;51.412;5.432;2022-10-16T06:33:29;4.82;;;1.50;;
74074;SDS011;62428;51.412;5.432;2022-10-16T06:38:28;6.07;;;2.00;;
74074;SDS011;62428;51.412;5.432;2022-10-16T06:40:54;5.13;;;1.50;;
74074;SDS011;62428;51.412;5.432;2022-10-16T06:43:19;5.57;;;1.63;;
74074;SDS011;62428;51.412;5.432;2022-10-16T06:45:54;7.43;;;2.13;;
74074;SDS011;62428;51.412;5.432;2022-10-16T06:48:21;8.50;;;1.80;;
74074;SDS011;62428;51.412;5.432;2022-10-16T06:53:26;8.38;;;2.40;;
74074;SDS011;62428;51.412;5.432;2022-10-16T06:55:54;5.45;;;1.95;;
74074;SDS011;62428;51.412;5.432;2022-10-16T06:58:19;5.85;;;2.13;;
74074;SDS011;62428;51.412;5.432;2022-10-16T07:00:45;6.40;;;2.20;;
74074;SDS011;62428;51.412;5.432;2022-10-16T07:03:11;5.15;;;2.42;;
74074;SDS011;62428;51.412;5.432;2022-10-16T07:05:40;7.03;;;2.13;;
74074;SDS011;62428;51.412;5.432;2022-10-16T07:08:06;12.40;;;2.28;;
74074;SDS011;62428;51.412;5.432;2022-10-16T07:10:32;8.13;;;2.33;;
74074;SDS011;62428;51.412;5.432;2022-10-16T07:13:01;3.97;;;1.90;;
74074;SDS011;62428;51.412;5.432;2022-10-16T07:15:27;5.13;;;2.60;;
74074;SDS011;62428;51.412;5.432;2022-10-16T07:17:52;6.73;;;2.23;;
74074;SDS011;62428;51.412;5.432;2022-10-16T07:20:18;6.28;;;2.33;;
74074;SDS011;62428;51.412;5.432;2022-10-16T07:22:44;4.80;;;2.17;;
74074;SDS011;62428;51.412;5.432;2022-10-16T07:25:09;4.90;;;2.20;;
74074;SDS011;62428;51.412;5.432;2022-10-16T07:27:34;5.40;;;1.93;;
74074;SDS011;62428;51.412;5.432;2022-10-16T07:30:00;4.93;;;2.20;;
74074;SDS011;62428;51.412;5.432;2022-10-16T07:32:26;6.10;;;2.27;;
74074;SDS011;62428;51.412;5.432;2022-10-16T07:34:52;5.15;;;2.05;;
74074;SDS011;62428;51.412;5.432;2022-10-16T07:37:18;7.20;;;2.13;;
74074;SDS011;62428;51.412;5.432;2022-10-16T07:39:43;4.47;;;2.03;;
74074;SDS011;62428;51.412;5.432;2022-10-16T07:42:09;5.47;;;1.80;;
74074;SDS011;62428;51.412;5.432;2022-10-16T07:44:34;4.30;;;1.53;;
74074;SDS011;62428;51.412;5.432;2022-10-16T07:46:59;8.43;;;1.77;;
74074;SDS011;62428;51.412;5.432;2022-10-16T07:49:24;3.88;;;1.38;;
74074;SDS011;62428;51.412;5.432;2022-10-16T07:51:50;7.20;;;1.40;;
74074;SDS011;62428;51.412;5.432;2022-10-16T07:54:15;5.57;;;1.30;;
74074;SDS011;62428;51.412;5.432;2022-10-16T07:56:41;5.93;;;1.60;;
74074;SDS011;62428;51.412;5.432;2022-10-16T07:59:06;5.37;;;1.17;;
74074;SDS011;62428;51.412;5.432;2022-10-16T08:01:31;4.47;;;1.40;;
74074;SDS011;62428;51.412;5.432;2022-10-16T08:03:57;4.33;;;0.90;;
74074;SDS011;62428;51.412;5.432;2022-10-16T08:06:22;7.77;;;1.20;;
74074;SDS011;62428;51.412;5.432;2022-10-16T08:08:48;4.33;;;1.03;;
74074;SDS011;62428;51.412;5.432;2022-10-16T08:11:14;5.82;;;1.25;;
74074;SDS011;62428;51.412;5.432;2022-10-16T08:13:40;4.43;;;1.25;;
74074;SDS011;62428;51.412;5.432;2022-10-16T08:16:06;3.97;;;1.00;;
74074;SDS011;62428;51.412;5.432;2022-10-16T08:18:39;5.55;;;1.10;;
74074;SDS011;62428;51.412;5.432;2022-10-16T08:21:06;8.73;;;1.33;;
74074;SDS011;62428;51.412;5.432;2022-10-16T08:23:34;4.65;;;1.27;;
74074;SDS011;62428;51.412;5.432;2022-10-16T08:26:03;3.20;;;0.80;;
74074;SDS011;62428;51.412;5.432;2022-10-16T08:28:32;2.63;;;1.00;;
74074;SDS011;62428;51.412;5.432;2022-10-16T08:31:14;4.23;;;1.03;;
74074;SDS011;62428;51.412;5.432;2022-10-16T08:33:41;5.72;;;1.15;;
74074;SDS011;62428;51.412;5.432;2022-10-16T08:36:10;6.30;;;1.02;;
74074;SDS011;62428;51.412;5.432;2022-10-16T08:38:36;3.00;;;0.80;;
74074;SDS011;62428;51.412;5.432;2022-10-16T08:41:08;6.05;;;1.17;;
74074;SDS011;62428;51.412;5.432;2022-10-16T08:49:16;5.07;;;1.00;;
74074;SDS011;62428;51.412;5.432;2022-10-16T08:51:42;3.35;;;0.70;;
74074;SDS011;62428;51.412;5.432;2022-10-16T08:56:35;5.03;;;0.70;;
74074;SDS011;62428;51.412;5.432;2022-10-16T08:59:01;4.27;;;0.83;;
74074;SDS011;62428;51.412;5.432;2022-10-16T09:01:36;6.00;;;0.97;;
74074;SDS011;62428;51.412;5.432;2022-10-16T09:04:22;5.30;;;0.82;;
74074;SDS011;62428;51.412;5.432;2022-10-16T09:06:50;6.25;;;0.80;;
74074;SDS011;62428;51.412;5.432;2022-10-16T09:16:51;8.98;;;1.00;;
74074;SDS011;62428;51.412;5.432;2022-10-16T09:19:25;4.30;;;1.08;;
74074;SDS011;62428;51.412;5.432;2022-10-16T09:21:57;5.13;;;1.10;;
74074;SDS011;62428;51.412;5.432;2022-10-16T09:24:27;5.60;;;0.70;;
74074;SDS011;62428;51.412;5.432;2022-10-16T09:26:52;4.30;;;0.70;;
74074;SDS011;62428;51.412;5.432;2022-10-16T09:29:18;4.80;;;0.60;;
74074;SDS011;62428;51.412;5.432;2022-10-16T09:31:45;4.70;;;0.67;;
74074;SDS011;62428;51.412;5.432;2022-10-16T09:34:32;9.13;;;0.80;;
74074;SDS011;62428;51.412;5.432;2022-10-16T09:36:59;3.80;;;0.70;;
74074;SDS011;62428;51.412;5.432;2022-10-16T09:39:29;3.88;;;0.65;;
74074;SDS011;62428;51.412;5.432;2022-10-16T09:41:54;3.97;;;0.67;;
74074;SDS011;62428;51.412;5.432;2022-10-16T09:49:54;6.80;;;0.75;;
74074;SDS011;62428;51.412;5.432;2022-10-16T09:52:23;7.88;;;0.77;;
74074;SDS011;62428;51.412;5.432;2022-10-16T09:54:56;3.95;;;0.82;;
74074;SDS011;62428;51.412;5.432;2022-10-16T09:57:25;6.35;;;0.90;;
74074;SDS011;62428;51.412;5.432;2022-10-16T09:59:52;4.30;;;0.80;;
74074;SDS011;62428;51.412;5.432;2022-10-16T10:02:20;9.13;;;0.63;;
74074;SDS011;62428;51.412;5.432;2022-10-16T10:04:53;10.77;;;1.00;;
74074;SDS011;62428;51.412;5.432;2022-10-16T10:07:42;7.93;;;0.85;;
74074;SDS011;62428;51.412;5.432;2022-10-16T10:10:18;4.77;;;0.50;;
74074;SDS011;62428;51.412;5.432;2022-10-16T10:12:47;5.63;;;1.00;;
74074;SDS011;62428;51.412;5.432;2022-10-16T10:15:13;7.10;;;0.80;;
74074;SDS011;62428;51.412;5.432;2022-10-16T10:17:47;8.67;;;1.27;;
74074;SDS011;62428;51.412;5.432;2022-10-16T10:22:51;6.75;;;0.88;;
74074;SDS011;62428;51.412;5.432;2022-10-16T10:34:00;5.55;;;1.02;;
74074;SDS011;62428;51.412;5.432;2022-10-16T10:36:48;4.97;;;0.70;;
74074;SDS011;62428;51.412;5.432;2022-10-16T10:39:27;10.63;;;0.93;;
74074;SDS011;62428;51.412;5.432;2022-10-16T10:42:24;11.85;;;1.20;;
74074;SDS011;62428;51.412;5.432;2022-10-16T10:50:33;5.60;;;0.63;;
74074;SDS011;62428;51.412;5.432;2022-10-16T10:53:06;7.82;;;0.98;;
74074;SDS011;62428;51.412;5.432;2022-10-16T11:00:47;10.07;;;1.30;;
74074;SDS011;62428;51.412;5.432;2022-10-16T11:06:33;8.25;;;1.00;;
74074;SDS011;62428;51.412;5.432;2022-10-16T11:09:19;7.60;;;0.90;;
74074;SDS011;62428;51.412;5.432;2022-10-16T11:11:47;9.00;;;1.10;;
74074;SDS011;62428;51.412;5.432;2022-10-16T11:14:20;10.15;;;1.10;;
74074;SDS011;62428;51.412;5.432;2022-10-16T11:16:55;7.18;;;1.25;;
74074;SDS011;62428;51.412;5.432;2022-10-16T11:19:37;8.10;;;0.90;;
74074;SDS011;62428;51.412;5.432;2022-10-16T11:31:02;3.70;;;0.57;;
74074;SDS011;62428;51.412;5.432;2022-10-16T11:38:53;7.23;;;0.73;;
74074;SDS011;62428;51.412;5.432;2022-10-16T11:50:28;7.05;;;0.80;;
74074;SDS011;62428;51.412;5.432;2022-10-16T11:53:04;6.30;;;0.60;;
74074;SDS011;62428;51.412;5.432;2022-10-16T11:55:39;9.13;;;1.10;;
74074;SDS011;62428;51.412;5.432;2022-10-16T12:00:44;7.70;;;1.15;;
74074;SDS011;62428;51.412;5.432;2022-10-16T12:05:52;9.37;;;1.23;;
74074;SDS011;62428;51.412;5.432;2022-10-16T12:08:40;14.05;;;2.35;;
74074;SDS011;62428;51.412;5.432;2022-10-16T12:11:53;7.57;;;1.40;;
74074;SDS011;62428;51.412;5.432;2022-10-16T12:16:50;9.43;;;0.98;;
74074;SDS011;62428;51.412;5.432;2022-10-16T12:19:21;4.53;;;1.10;;
74074;SDS011;62428;51.412;5.432;2022-10-16T12:21:55;7.72;;;1.30;;
74074;SDS011;62428;51.412;5.432;2022-10-16T12:26:59;4.63;;;0.60;;
74074;SDS011;62428;51.412;5.432;2022-10-16T12:31:56;4.13;;;0.60;;
74074;SDS011;62428;51.412;5.432;2022-10-16T12:36:55;14.57;;;1.40;;
74074;SDS011;62428;51.412;5.432;2022-10-16T12:39:32;7.68;;;0.75;;
74074;SDS011;62428;51.412;5.432;2022-10-16T12:42:01;5.63;;;0.60;;
74074;SDS011;62428;51.412;5.432;2022-10-16T12:44:31;4.97;;;0.60;;
74074;SDS011;62428;51.412;5.432;2022-10-16T12:46:58;6.45;;;0.80;;
74074;SDS011;62428;51.412;5.432;2022-10-16T12:49:57;4.67;;;0.63;;
74074;SDS011;62428;51.412;5.432;2022-10-16T12:52:38;5.07;;;0.60;;
74074;SDS011;62428;51.412;5.432;2022-10-16T12:55:04;8.60;;;0.70;;
74074;SDS011;62428;51.412;5.432;2022-10-16T12:57:37;13.73;;;0.80;;
74074;SDS011;62428;51.412;5.432;2022-10-16T13:03:25;6.07;;;0.80;;
74074;SDS011;62428;51.412;5.432;2022-10-16T13:11:30;6.00;;;0.82;;
74074;SDS011;62428;51.412;5.432;2022-10-16T13:20:03;8.13;;;0.70;;
74074;SDS011;62428;51.412;5.432;2022-10-16T13:28:02;6.13;;;0.80;;
74074;SDS011;62428;51.412;5.432;2022-10-16T13:30:31;3.95;;;0.70;;
74074;SDS011;62428;51.412;5.432;2022-10-16T13:33:16;5.95;;;0.80;;
74074;SDS011;62428;51.412;5.432;2022-10-16T13:35:49;7.65;;;0.90;;
74074;SDS011;62428;51.412;5.432;2022-10-16T13:38:20;4.45;;;0.68;;
74074;SDS011;62428;51.412;5.432;2022-10-16T13:40:54;7.53;;;0.67;;
74074;SDS011;62428;51.412;5.432;2022-10-16T13:43:40;11.20;;;1.00;;
74074;SDS011;62428;51.412;5.432;2022-10-16T13:46:14;8.95;;;1.00;;
74074;SDS011;62428;51.412;5.432;2022-10-16T13:49:05;3.33;;;0.65;;
74074;SDS011;62428;51.412;5.432;2022-10-16T13:51:37;5.60;;;0.73;;
74074;SDS011;62428;51.412;5.432;2022-10-16T13:54:02;3.87;;;0.77;;
74074;SDS011;62428;51.412;5.432;2022-10-16T13:56:29;3.97;;;0.60;;
74074;SDS011;62428;51.412;5.432;2022-10-16T13:59:03;5.82;;;0.60;;
74074;SDS011;62428;51.412;5.432;2022-10-16T14:04:10;4.85;;;0.68;;
74074;SDS011;62428;51.412;5.432;2022-10-16T14:06:42;7.00;;;0.80;;
74074;SDS011;62428;51.412;5.432;2022-10-16T14:11:50;3.72;;;0.70;;
74074;SDS011;62428;51.412;5.432;2022-10-16T14:14:22;4.07;;;0.70;;
74074;SDS011;62428;51.412;5.432;2022-10-16T14:16:48;4.95;;;0.60;;
74074;SDS011;62428;51.412;5.432;2022-10-16T14:19:26;4.60;;;0.50;;
74074;SDS011;62428;51.412;5.432;2022-10-16T14:21:54;4.75;;;0.80;;
74074;SDS011;62428;51.412;5.432;2022-10-16T14:24:31;5.83;;;0.63;;
74074;SDS011;62428;51.412;5.432;2022-10-16T14:26:58;3.55;;;0.57;;
74074;SDS011;62428;51.412;5.432;2022-10-16T14:29:25;3.00;;;0.50;;
74074;SDS011;62428;51.412;5.432;2022-10-16T14:31:59;5.00;;;0.80;;
74074;SDS011;62428;51.412;5.432;2022-10-16T14:34:33;2.85;;;0.55;;
74074;SDS011;62428;51.412;5.432;2022-10-16T14:37:01;6.40;;;1.00;;
74074;SDS011;62428;51.412;5.432;2022-10-16T14:39:33;3.45;;;0.80;;
74074;SDS011;62428;51.412;5.432;2022-10-16T14:42:00;4.22;;;0.85;;
74074;SDS011;62428;51.412;5.432;2022-10-16T14:44:27;4.97;;;1.07;;
74074;SDS011;62428;51.412;5.432;2022-10-16T14:46:56;8.65;;;1.00;;
74074;SDS011;62428;51.412;5.432;2022-10-16T14:49:22;7.20;;;1.10;;
74074;SDS011;62428;51.412;5.432;2022-10-16T14:51:49;5.95;;;1.73;;
74074;SDS011;62428;51.412;5.432;2022-10-16T14:54:15;7.47;;;2.37;;
74074;SDS011;62428;51.412;5.432;2022-10-16T14:59:13;8.55;;;2.20;;
74074;SDS011;62428;51.412;5.432;2022-10-16T15:01:42;6.47;;;1.48;;
74074;SDS011;62428;51.412;5.432;2022-10-16T15:04:09;4.60;;;1.00;;
74074;SDS011;62428;51.412;5.432;2022-10-16T15:06:37;4.60;;;0.95;;
74074;SDS011;62428;51.412;5.432;2022-10-16T15:09:02;3.80;;;1.10;;
74074;SDS011;62428;51.412;5.432;2022-10-16T15:11:28;3.87;;;0.90;;
74074;SDS011;62428;51.412;5.432;2022-10-16T15:13:56;9.32;;;0.80;;
74074;SDS011;62428;51.412;5.432;2022-10-16T15:16:21;2.40;;;0.50;;
74074;SDS011;62428;51.412;5.432;2022-10-16T15:18:46;4.00;;;0.63;;
74074;SDS011;62428;51.412;5.432;2022-10-16T15:21:28;1.80;;;0.60;;
74074;SDS011;62428;51.412;5.432;2022-10-16T15:23:56;2.93;;;0.70;;
74074;SDS011;62428;51.412;5.432;2022-10-16T15:26:23;2.63;;;0.52;;
74074;SDS011;62428;51.412;5.432;2022-10-16T15:28:49;4.13;;;0.60;;
74074;SDS011;62428;51.412;5.432;2022-10-16T15:31:15;6.57;;;0.60;;
74074;SDS011;62428;51.412;5.432;2022-10-16T15:33:40;2.50;;;0.50;;
74074;SDS011;62428;51.412;5.432;2022-10-16T15:36:05;2.77;;;0.70;;
74074;SDS011;62428;51.412;5.432;2022-10-16T15:38:31;4.47;;;0.50;;
74074;SDS011;62428;51.412;5.432;2022-10-16T15:40:56;1.93;;;0.70;;
74074;SDS011;62428;51.412;5.432;2022-10-16T15:43:22;9.05;;;0.82;;
74074;SDS011;62428;51.412;5.432;2022-10-16T15:45:57;2.50;;;0.60;;
74074;SDS011;62428;51.412;5.432;2022-10-16T15:48:28;5.80;;;0.77;;
74074;SDS011;62428;51.412;5.432;2022-10-16T15:50:54;3.88;;;0.70;;
74074;SDS011;62428;51.412;5.432;2022-10-16T15:53:19;3.43;;;0.57;;
74074;SDS011;62428;51.412;5.432;2022-10-16T15:55:45;3.27;;;0.70;;
74074;SDS011;62428;51.412;5.432;2022-10-16T15:58:10;3.73;;;0.93;;
74074;SDS011;62428;51.412;5.432;2022-10-16T16:00:35;2.43;;;0.50;;
74074;SDS011;62428;51.412;5.432;2022-10-16T16:03:01;5.87;;;0.57;;
74074;SDS011;62428;51.412;5.432;2022-10-16T16:05:26;4.30;;;0.63;;
74074;SDS011;62428;51.412;5.432;2022-10-16T16:07:52;6.20;;;0.80;;
74074;SDS011;62428;51.412;5.432;2022-10-16T16:10:18;3.83;;;0.75;;
74074;SDS011;62428;51.412;5.432;2022-10-16T16:12:45;5.47;;;0.87;;
74074;SDS011;62428;51.412;5.432;2022-10-16T16:15:16;2.70;;;0.75;;
74074;SDS011;62428;51.412;5.432;2022-10-16T16:17:41;5.00;;;1.00;;
74074;SDS011;62428;51.412;5.432;2022-10-16T16:20:07;3.80;;;0.77;;
74074;SDS011;62428;51.412;5.432;2022-10-16T16:22:33;7.25;;;1.13;;
74074;SDS011;62428;51.412;5.432;2022-10-16T16:24:58;6.67;;;0.87;;
74074;SDS011;62428;51.412;5.432;2022-10-16T16:27:23;5.70;;;1.00;;
74074;SDS011;62428;51.412;5.432;2022-10-16T16:29:49;6.13;;;1.00;;
74074;SDS011;62428;51.412;5.432;2022-10-16T16:32:15;5.23;;;0.90;;
74074;SDS011;62428;51.412;5.432;2022-10-16T16:34:40;7.97;;;0.93;;
74074;SDS011;62428;51.412;5.432;2022-10-16T16:37:05;7.20;;;1.50;;
74074;SDS011;62428;51.412;5.432;2022-10-16T16:39:31;4.10;;;1.20;;
74074;SDS011;62428;51.412;5.432;2022-10-16T16:41:57;7.17;;;1.17;;
74074;SDS011;62428;51.412;5.432;2022-10-16T16:44:23;8.73;;;1.05;;
74074;SDS011;62428;51.412;5.432;2022-10-16T16:46:49;7.10;;;1.42;;
74074;SDS011;62428;51.412;5.432;2022-10-16T16:49:15;4.70;;;1.10;;
74074;SDS011;62428;51.412;5.432;2022-10-16T16:51:41;4.67;;;1.20;;
74074;SDS011;62428;51.412;5.432;2022-10-16T16:54:07;2.70;;;0.88;;
74074;SDS011;62428;51.412;5.432;2022-10-16T16:56:34;6.75;;;1.50;;
74074;SDS011;62428;51.412;5.432;2022-10-16T16:59:00;3.90;;;0.75;;
74074;SDS011;62428;51.412;5.432;2022-10-16T17:01:26;4.43;;;1.77;;
74074;SDS011;62428;51.412;5.432;2022-10-16T17:03:53;6.85;;;1.88;;
74074;SDS011;62428;51.412;5.432;2022-10-16T17:06:20;10.55;;;4.53;;
74074;SDS011;62428;51.412;5.432;2022-10-16T17:08:50;11.20;;;3.03;;
74074;SDS011;62428;51.412;5.432;2022-10-16T17:11:17;11.20;;;2.00;;